createdAt,value
2022-10-05T00:01:18.620Z,99578.19
2022-10-05T00:03:47.239Z,99571.97
2022-10-05T00:06:15.804Z,99579.19
2022-10-05T00:08:44.597Z,99574.78
2022-10-05T00:11:14.610Z,99579.19
2022-10-05T00:13:43.348Z,99581.59
2022-10-05T00:16:17.731Z,99585.03
2022-10-05T00:18:48.635Z,99591.06
2022-10-05T00:21:20.868Z,99585.66
2022-10-05T00:23:49.845Z,99589.88
2022-10-05T00:26:21.185Z,99583.41
2022-10-05T00:28:50.151Z,99582.97
2022-10-05T00:31:22.578Z,99586.03
2022-10-05T00:33:51.776Z,99577.22
2022-10-05T00:36:20.369Z,99576.38
2022-10-05T00:38:48.984Z,99571.53
2022-10-05T00:41:21.616Z,99565.91
2022-10-05T00:44:10.756Z,99578.34
2022-10-05T00:46:48.424Z,99566.72
2022-10-05T00:49:23.480Z,99575.72
2022-10-05T00:51:57.190Z,99569.97
2022-10-05T00:54:30.843Z,99573.31
2022-10-05T00:57:22.167Z,99574.34
2022-10-05T00:59:59.791Z,99572.50
2022-10-05T01:02:37.183Z,99579.09
2022-10-05T01:05:10.452Z,99572.66
2022-10-05T01:07:43.613Z,99573.03
2022-10-05T01:10:20.141Z,99565.81
2022-10-05T01:12:55.318Z,99562.34
2022-10-05T01:15:28.770Z,99572.75
2022-10-05T01:18:04.493Z,99574.91
2022-10-05T01:20:40.271Z,99566.47
2022-10-05T01:23:32.245Z,99569.69
2022-10-05T01:26:12.939Z,99565.91
2022-10-05T01:28:46.193Z,99564.00
2022-10-05T01:31:20.905Z,99558.59
2022-10-05T01:33:56.308Z,99554.13
2022-10-05T01:36:29.024Z,99544.19
2022-10-05T01:39:06.428Z,99548.22
2022-10-05T01:41:39.396Z,99546.47
2022-10-05T01:44:11.834Z,99545.97
2022-10-05T01:46:43.226Z,99549.16
2022-10-05T01:49:28.573Z,99551.84
2022-10-05T01:52:09.305Z,99551.47
2022-10-05T01:54:43.350Z,99539.66
2022-10-05T01:57:19.058Z,99553.81
2022-10-05T02:00:00.444Z,99552.16
2022-10-05T02:02:30.608Z,99549.72
2022-10-05T02:05:05.320Z,99549.41
2022-10-05T02:07:37.968Z,99543.50
2022-10-05T02:10:10.042Z,99540.53
2022-10-05T02:12:39.204Z,99546.09
2022-10-05T02:15:15.164Z,99534.44
2022-10-05T02:17:46.394Z,99536.03
2022-10-05T02:20:19.940Z,99539.59
2022-10-05T02:22:50.933Z,99541.72
2022-10-05T02:25:22.677Z,99544.81
2022-10-05T02:27:55.106Z,99517.59
2022-10-05T02:30:25.347Z,99531.84
2022-10-05T02:32:55.884Z,99534.81
2022-10-05T02:35:24.859Z,99535.84
2022-10-05T02:38:01.222Z,99526.44
2022-10-05T02:40:40.537Z,99530.59
2022-10-05T02:43:17.997Z,99523.94
2022-10-05T02:45:54.138Z,99521.53
2022-10-05T02:48:32.037Z,99515.44
2022-10-05T02:51:04.833Z,99517.03
2022-10-05T02:53:39.083Z,99517.69
2022-10-05T02:56:14.177Z,99516.13
2022-10-05T02:58:47.196Z,99518.72
2022-10-05T03:01:24.650Z,99530.50
2022-10-05T03:04:03.159Z,99534.88
2022-10-05T03:06:34.124Z,99536.59
2022-10-05T03:09:04.211Z,99528.94
2022-10-05T03:11:36.632Z,99528.44
2022-10-05T03:14:09.666Z,99538.53
2022-10-05T03:16:48.068Z,99542.19
2022-10-05T03:19:54.174Z,99539.03
2022-10-05T03:22:32.242Z,99531.59
2022-10-05T03:25:22.660Z,99532.75
2022-10-05T03:27:54.591Z,99527.19
2022-10-05T03:30:26.527Z,99535.22
2022-10-05T03:33:02.620Z,99530.41
2022-10-05T03:35:33.816Z,99526.19
2022-10-05T03:38:09.638Z,99518.56
2022-10-05T03:40:41.210Z,99522.34
2022-10-05T03:43:37.767Z,99519.72
2022-10-05T03:46:10.198Z,99507.13
2022-10-05T03:48:45.364Z,99510.13
2022-10-05T03:51:16.533Z,99508.22
2022-10-05T03:53:48.797Z,99503.47
2022-10-05T03:56:20.762Z,99501.63
2022-10-05T03:58:55.689Z,99507.25
2022-10-05T04:01:26.996Z,99503.66
2022-10-05T04:03:59.284Z,99503.41
2022-10-05T04:06:29.224Z,99503.34
2022-10-05T04:09:00.545Z,99497.81
2022-10-05T04:11:31.568Z,99505.31
2022-10-05T04:14:02.631Z,99498.47
2022-10-05T04:16:34.802Z,99500.66
2022-10-05T04:19:11.821Z,99497.41
2022-10-05T04:21:47.251Z,99504.34
2022-10-05T04:24:19.619Z,99495.44
2022-10-05T04:26:52.311Z,99501.50
2022-10-05T04:29:28.784Z,99491.50
2022-10-05T04:32:08.228Z,99491.50
2022-10-05T04:34:54.556Z,99494.56
2022-10-05T04:37:26.955Z,99485.41
2022-10-05T04:40:09.195Z,99496.13
2022-10-05T04:42:41.314Z,99492.53
2022-10-05T04:45:15.748Z,99490.91
2022-10-05T04:48:03.473Z,99490.38
2022-10-05T04:50:45.393Z,99498.09
2022-10-05T04:53:21.285Z,99493.81
2022-10-05T04:55:55.013Z,99505.41
2022-10-05T04:58:42.097Z,99508.38
2022-10-05T05:01:22.922Z,99510.78
2022-10-05T05:04:06.245Z,99507.91
2022-10-05T05:06:41.379Z,99510.50
2022-10-05T05:09:37.305Z,99514.00
2022-10-05T05:12:19.110Z,99514.91
2022-10-05T05:15:11.908Z,99511.22
2022-10-05T05:17:52.061Z,99516.00
2022-10-05T05:20:24.142Z,99527.19
2022-10-05T05:23:04.711Z,99526.31
2022-10-05T05:25:39.160Z,99533.41
2022-10-05T05:28:17.909Z,99531.34
2022-10-05T05:30:51.572Z,99525.84
2022-10-05T05:33:23.953Z,99522.09
2022-10-05T05:36:13.713Z,99536.84
2022-10-05T05:38:48.082Z,99536.84
2022-10-05T05:41:22.537Z,99534.22
2022-10-05T05:43:56.714Z,99541.31
2022-10-05T05:47:01.912Z,99535.28
2022-10-05T05:49:19.688Z,99542.22
2022-10-05T05:51:51.605Z,99545.44
2022-10-05T05:54:27.694Z,99539.69
2022-10-05T05:57:01.155Z,99549.03
2022-10-05T05:59:33.708Z,99539.25
2022-10-05T06:02:07.169Z,99546.16
2022-10-05T06:04:39.203Z,99562.78
2022-10-05T06:07:08.294Z,99560.53
2022-10-05T06:09:41.006Z,99565.84
2022-10-05T06:12:12.765Z,99565.22
2022-10-05T06:14:44.488Z,99569.34
2022-10-05T06:17:15.987Z,99577.50
2022-10-05T06:19:45.684Z,99575.34
2022-10-05T06:22:19.106Z,99582.81
2022-10-05T06:24:57.088Z,99587.28
2022-10-05T06:27:36.614Z,99584.69
2022-10-05T06:30:10.655Z,99588.72
2022-10-05T06:32:53.595Z,99583.88
2022-10-05T06:35:31.431Z,99594.22
2022-10-05T06:38:19.960Z,99594.84
2022-10-05T06:40:58.593Z,99603.03
2022-10-05T06:43:36.142Z,99603.56
2022-10-05T06:46:10.426Z,99597.72
2022-10-05T06:49:07.405Z,99594.66
2022-10-05T06:51:39.103Z,99586.19
2022-10-05T06:54:18.933Z,99598.16
2022-10-05T06:56:53.512Z,99607.06
2022-10-05T06:59:25.233Z,99605.25
2022-10-05T07:01:58.320Z,99604.97
2022-10-05T07:04:43.906Z,99603.78
2022-10-05T07:07:18.407Z,99605.06
2022-10-05T07:09:59.999Z,99606.31
2022-10-05T07:12:41.312Z,99587.41
2022-10-05T07:15:33.523Z,99607.72
2022-10-05T07:18:13.451Z,99599.59
2022-10-05T07:20:49.251Z,99606.75
2022-10-05T07:23:26.506Z,99598.53
2022-10-05T07:26:03.276Z,99604.50
2022-10-05T07:28:38.622Z,99605.75
2022-10-05T07:31:10.777Z,99600.41
2022-10-05T07:33:44.316Z,99605.47
2022-10-05T07:36:35.469Z,99602.25
2022-10-05T07:39:07.252Z,99604.75
2022-10-05T07:41:41.146Z,99609.72
2022-10-05T07:44:14.482Z,99612.59
2022-10-05T07:46:51.806Z,99612.75
2022-10-05T07:49:27.859Z,99614.84
2022-10-05T07:51:58.283Z,99616.72
2022-10-05T07:54:30.315Z,99625.84
2022-10-05T07:57:05.127Z,99617.22
2022-10-05T07:59:42.016Z,99618.47
2022-10-05T08:02:24.799Z,99615.69
2022-10-05T08:04:58.369Z,99625.41
2022-10-05T08:07:29.427Z,99629.06
2022-10-05T08:10:03.603Z,99621.06
2022-10-05T08:12:35.859Z,99613.28
2022-10-05T08:15:10.897Z,99611.88
2022-10-05T08:17:45.356Z,99614.72
2022-10-05T08:20:24.388Z,99614.34
2022-10-05T08:22:56.297Z,99617.34
2022-10-05T08:25:27.317Z,99618.00
2022-10-05T08:28:00.080Z,99609.97
2022-10-05T08:30:31.793Z,99605.31
2022-10-05T08:33:06.846Z,99609.16
2022-10-05T08:35:39.400Z,99612.38
2022-10-05T08:38:12.658Z,99606.34
2022-10-05T08:41:00.599Z,99611.16
2022-10-05T08:44:04.713Z,99594.47
2022-10-05T08:47:00.491Z,99587.00
2022-10-05T08:50:11.064Z,99584.53
2022-10-05T08:52:53.477Z,99587.38
2022-10-05T08:55:35.911Z,99581.50
2022-10-05T08:58:23.070Z,99583.72
2022-10-05T09:00:57.135Z,99566.00
2022-10-05T09:04:07.388Z,99576.00
2022-10-05T09:07:07.341Z,99578.00
2022-10-05T09:10:04.647Z,99575.53
2022-10-05T09:13:01.398Z,99579.53
2022-10-05T09:15:43.493Z,99575.03
2022-10-05T09:18:47.937Z,99578.22
2022-10-05T09:21:29.656Z,99569.28
2022-10-05T09:24:09.377Z,99561.75
2022-10-05T09:26:45.443Z,99562.88
2022-10-05T09:29:51.345Z,99560.97
2022-10-05T09:32:41.736Z,99557.06
2022-10-05T09:35:23.032Z,99566.66
2022-10-05T09:38:23.283Z,99562.84
2022-10-05T09:41:24.723Z,99554.44
2022-10-05T09:44:16.169Z,99546.44
2022-10-05T09:47:01.028Z,99547.72
2022-10-05T09:49:57.821Z,99551.66
2022-10-05T09:52:50.256Z,99546.88
2022-10-05T09:55:43.921Z,99543.28
2022-10-05T09:58:34.037Z,99538.75
2022-10-05T10:01:29.296Z,99532.16
2022-10-05T10:04:19.026Z,99522.16
2022-10-05T10:07:05.002Z,99519.91
2022-10-05T10:09:39.940Z,99528.00
2022-10-05T10:12:33.422Z,99525.25
2022-10-05T10:15:19.146Z,99504.88
2022-10-05T10:18:01.895Z,99503.97
2022-10-05T10:20:38.508Z,99496.84
2022-10-05T10:23:14.702Z,99500.84
2022-10-05T10:26:05.099Z,99497.25
2022-10-05T10:29:07.271Z,99494.56
2022-10-05T10:31:47.707Z,99492.56
2022-10-05T10:34:37.995Z,99493.38
2022-10-05T10:37:24.937Z,99486.47
2022-10-05T10:40:10.248Z,99480.81
2022-10-05T10:42:43.172Z,99481.88
2022-10-05T10:45:20.564Z,99476.59
2022-10-05T10:47:59.773Z,99475.03
2022-10-05T10:50:58.227Z,99472.06
2022-10-05T10:53:47.642Z,99469.94
2022-10-05T10:56:41.316Z,99469.59
2022-10-05T11:00:15.443Z,99464.31
2022-10-05T11:03:09.023Z,99460.28
2022-10-05T11:05:52.909Z,99455.69
2022-10-05T11:08:49.788Z,99452.63
2022-10-05T11:11:28.177Z,99438.97
2022-10-05T11:14:22.249Z,99432.47
2022-10-05T11:17:14.037Z,99438.06
2022-10-05T11:20:04.693Z,99435.72
2022-10-05T11:22:42.416Z,99417.44
2022-10-05T11:25:48.052Z,99419.59
2022-10-05T11:28:39.859Z,99402.63
2022-10-05T11:31:46.934Z,99405.81
2022-10-05T11:34:39.348Z,99404.53
2022-10-05T11:37:21.244Z,99397.66
2022-10-05T11:40:16.692Z,99403.50
2022-10-05T11:43:06.241Z,99402.69
2022-10-05T11:45:46.059Z,99399.50
2022-10-05T11:48:29.079Z,99390.72
2022-10-05T11:51:21.332Z,99384.63
2022-10-05T11:53:59.412Z,99387.25
2022-10-05T11:59:11.990Z,99381.63
2022-10-05T12:01:44.894Z,99379.78
2022-10-05T12:04:19.875Z,99372.59
2022-10-05T12:06:57.706Z,99365.91
2022-10-05T12:09:39.761Z,99368.03
2022-10-05T12:12:15.635Z,99358.94
2022-10-05T12:14:52.420Z,99360.75
2022-10-05T12:17:26.042Z,99357.75
2022-10-05T12:19:59.190Z,99356.44
2022-10-05T12:22:32.757Z,99358.25
2022-10-05T12:25:07.810Z,99353.97
2022-10-05T12:27:39.452Z,99362.44
2022-10-05T12:30:15.588Z,99355.72
2022-10-05T12:32:55.892Z,99358.06
2022-10-05T12:35:47.301Z,99353.78
2022-10-05T12:38:21.613Z,99349.47
2022-10-05T12:40:58.360Z,99342.03
2022-10-05T12:43:34.888Z,99336.69
2022-10-05T12:46:10.604Z,99330.34
2022-10-05T12:49:09.663Z,99339.63
2022-10-05T12:51:42.273Z,99339.91
2022-10-05T12:54:18.374Z,99325.78
2022-10-05T12:56:53.828Z,99334.78
2022-10-05T12:59:33.815Z,99338.72
2022-10-05T13:02:08.686Z,99328.91
2022-10-05T13:04:43.191Z,99329.41
2022-10-05T13:07:23.611Z,99331.25
2022-10-05T13:09:59.077Z,99331.75
2022-10-05T13:12:36.205Z,99323.25
2022-10-05T13:15:11.882Z,99332.59
2022-10-05T13:17:45.399Z,99327.56
2022-10-05T13:20:22.589Z,99324.34
2022-10-05T13:22:55.567Z,99320.94
2022-10-05T13:25:28.474Z,99317.47
2022-10-05T13:28:11.867Z,99321.69
2022-10-05T13:30:42.529Z,99330.72
2022-10-05T13:33:17.956Z,99325.63
2022-10-05T13:35:52.152Z,99325.84
2022-10-05T13:38:26.865Z,99326.00
2022-10-05T13:41:04.057Z,99327.03
2022-10-05T13:43:39.933Z,99323.59
2022-10-05T13:46:13.430Z,99321.41
2022-10-05T13:48:51.656Z,99313.94
2022-10-05T13:51:23.162Z,99319.47
2022-10-05T13:53:57.495Z,99320.25
2022-10-05T13:56:30.398Z,99318.66
2022-10-05T13:59:11.865Z,99316.50
2022-10-05T14:01:43.025Z,99309.59
2022-10-05T14:04:18.052Z,99309.91
2022-10-05T14:06:47.067Z,99306.22
2022-10-05T14:09:29.711Z,99308.66
2022-10-05T14:12:14.173Z,99307.41
2022-10-05T14:14:50.604Z,99311.19
2022-10-05T14:17:37.393Z,99305.47
2022-10-05T14:20:19.691Z,99309.38
2022-10-05T14:22:52.759Z,99308.34
2022-10-05T14:25:21.803Z,99305.22
2022-10-05T14:28:00.417Z,99296.28
2022-10-05T14:30:31.496Z,99306.28
2022-10-05T14:33:15.915Z,99304.50
2022-10-05T14:35:50.101Z,99301.06
2022-10-05T14:38:20.973Z,99296.38
2022-10-05T14:41:05.375Z,99296.66
2022-10-05T14:43:34.200Z,99301.78
2022-10-05T14:46:25.322Z,99298.66
2022-10-05T14:49:13.811Z,99301.34
2022-10-05T14:51:43.124Z,99296.56
2022-10-05T14:54:25.144Z,99301.66
2022-10-05T14:57:02.392Z,99292.84
2022-10-05T14:59:59.951Z,99291.31
2022-10-05T15:02:53.315Z,99293.47
2022-10-05T15:05:26.777Z,99289.28
2022-10-05T15:07:59.517Z,99291.13
2022-10-05T15:10:30.691Z,99287.69
2022-10-05T15:13:09.202Z,99287.19
2022-10-05T15:15:45.556Z,99287.44
2022-10-05T15:18:27.249Z,99287.44
2022-10-05T15:21:10.794Z,99294.34
2022-10-05T15:23:42.822Z,99294.88
2022-10-05T15:26:23.632Z,99292.50
2022-10-05T15:28:56.269Z,99290.13
2022-10-05T15:31:31.105Z,99296.28
2022-10-05T15:34:02.974Z,99288.03
2022-10-05T15:36:36.424Z,99294.72
2022-10-05T15:39:10.546Z,99285.69
2022-10-05T15:41:55.247Z,99292.88
2022-10-05T15:44:34.159Z,99295.81
2022-10-05T15:47:06.110Z,99288.94
2022-10-05T15:49:40.722Z,99294.25
2022-10-05T15:52:17.725Z,99304.38
2022-10-05T15:55:10.403Z,99301.72
2022-10-05T15:57:44.125Z,99301.19
2022-10-05T16:00:13.942Z,99310.53
2022-10-05T16:02:46.616Z,99313.19
2022-10-05T16:05:43.630Z,99306.00
2022-10-05T16:08:37.889Z,99310.28
2022-10-05T16:11:10.050Z,99321.44
2022-10-05T16:13:43.533Z,99313.47
2022-10-05T16:16:18.301Z,99323.03
2022-10-05T16:19:00.512Z,99327.56
2022-10-05T16:21:38.902Z,99325.13
2022-10-05T16:24:18.791Z,99329.09
2022-10-05T16:26:58.949Z,99327.25
2022-10-05T16:29:39.113Z,99333.59
2022-10-05T16:32:11.444Z,99333.06
2022-10-05T16:34:57.116Z,99336.28
2022-10-05T16:37:34.705Z,99340.47
2022-10-05T16:40:06.764Z,99341.81
2022-10-05T16:42:49.632Z,99344.16
2022-10-05T16:45:27.985Z,99345.47
2022-10-05T16:48:04.747Z,99351.00
2022-10-05T16:50:38.825Z,99354.16
2022-10-05T16:53:16.077Z,99361.47
2022-10-05T16:55:48.260Z,99367.78
2022-10-05T16:58:21.544Z,99369.59
2022-10-05T17:01:00.928Z,99371.94
2022-10-05T17:03:39.907Z,99373.25
2022-10-05T17:06:38.017Z,99377.66
2022-10-05T17:09:19.424Z,99380.19
2022-10-05T17:11:59.943Z,99388.06
2022-10-05T17:14:37.386Z,99392.19
2022-10-05T17:17:36.694Z,99392.84
2022-10-05T17:20:42.938Z,99395.63
2022-10-05T17:23:28.060Z,99392.88
2022-10-05T17:26:05.591Z,99409.94
2022-10-05T17:28:39.771Z,99402.66
2022-10-05T17:31:14.982Z,99405.16
2022-10-05T17:34:11.718Z,99411.69
2022-10-05T17:36:44.779Z,99415.53
2022-10-05T17:39:16.431Z,99422.31
2022-10-05T17:41:46.823Z,99416.88
2022-10-05T17:44:26.182Z,99412.38
2022-10-05T17:46:57.435Z,99416.50
2022-10-05T17:49:47.307Z,99417.16
2022-10-05T17:52:41.498Z,99426.91
2022-10-05T17:55:29.938Z,99409.72
2022-10-05T17:58:02.034Z,99423.63
2022-10-05T18:00:50.180Z,99413.50
2022-10-05T18:03:40.852Z,99425.88
2022-10-05T18:06:42.061Z,99417.41
2022-10-05T18:09:33.006Z,99427.34
2022-10-05T18:12:26.366Z,99430.88
2022-10-05T18:14:59.896Z,99426.53
2022-10-05T18:17:46.381Z,99435.66
2022-10-05T18:20:30.161Z,99437.41
2022-10-05T18:23:29.368Z,99445.63
2022-10-05T18:26:02.220Z,99447.63
2022-10-05T18:28:41.065Z,99463.34
2022-10-05T18:31:21.160Z,99458.78
2022-10-05T18:34:03.415Z,99464.50
2022-10-05T18:36:42.885Z,99470.47
2022-10-05T18:39:22.641Z,99471.44
2022-10-05T18:42:00.208Z,99474.31
2022-10-05T18:44:37.487Z,99472.41
2022-10-05T18:47:14.701Z,99485.63
2022-10-05T18:49:57.174Z,99479.19
2022-10-05T18:52:35.684Z,99462.38
2022-10-05T18:55:11.840Z,99476.59
2022-10-05T18:57:50.602Z,99478.78
2022-10-05T19:00:21.737Z,99481.34
2022-10-05T19:02:54.511Z,99486.75
2022-10-05T19:05:47.668Z,99489.72
2022-10-05T19:08:24.850Z,99496.41
2022-10-05T19:10:56.852Z,99499.03
2022-10-05T19:13:34.251Z,99506.25
2022-10-05T19:16:17.790Z,99511.16
2022-10-05T19:19:12.230Z,99504.66
2022-10-05T19:21:45.703Z,99516.34
2022-10-05T19:24:48.089Z,99516.34
2022-10-05T19:27:22.995Z,99518.84
2022-10-05T19:30:08.653Z,99519.53
2022-10-05T19:32:45.228Z,99530.66
2022-10-05T19:35:23.380Z,99536.84
2022-10-05T19:38:03.095Z,99539.47
2022-10-05T19:40:36.501Z,99551.75
2022-10-05T19:43:18.929Z,99554.84
2022-10-05T19:45:58.582Z,99562.63
2022-10-05T19:48:32.934Z,99568.34
2022-10-05T19:51:03.203Z,99578.19
2022-10-05T19:53:36.374Z,99580.13
2022-10-05T19:56:20.008Z,99585.94
2022-10-05T19:58:49.583Z,99598.09
2022-10-05T20:01:26.542Z,99596.72
2022-10-05T20:03:57.938Z,99605.88
2022-10-05T20:06:29.431Z,99601.03
2022-10-05T20:09:00.264Z,99608.72
2022-10-05T20:11:29.631Z,99612.47
2022-10-05T20:14:17.892Z,99613.47
2022-10-05T20:17:04.011Z,99619.94
2022-10-05T20:19:57.486Z,99618.13
2022-10-05T20:22:35.452Z,99627.84
2022-10-05T20:25:06.639Z,99628.31
2022-10-05T20:27:37.696Z,99631.69
2022-10-05T20:30:07.797Z,99634.53
2022-10-05T20:32:36.528Z,99640.91
2022-10-05T20:35:06.719Z,99632.59
2022-10-05T20:37:37.813Z,99648.44
2022-10-05T20:40:07.315Z,99651.59
2022-10-05T20:42:36.044Z,99660.50
2022-10-05T20:45:06.341Z,99655.56
2022-10-05T20:47:37.550Z,99656.69
2022-10-05T20:50:09.030Z,99667.81
2022-10-05T20:52:39.175Z,99667.66
2022-10-05T20:55:11.737Z,99672.19
2022-10-05T20:57:41.579Z,99667.94
2022-10-05T21:00:11.610Z,99680.78
2022-10-05T21:02:40.412Z,99679.25
2022-10-05T21:05:10.078Z,99689.09
2022-10-05T21:07:40.852Z,99693.19
2022-10-05T21:10:11.166Z,99696.56
2022-10-05T21:12:39.820Z,99692.97
2022-10-05T21:15:10.455Z,99701.69
2022-10-05T21:17:41.706Z,99711.59
2022-10-05T21:20:11.155Z,99710.88
2022-10-05T21:22:41.851Z,99713.47
2022-10-05T21:25:10.798Z,99716.13
2022-10-05T21:27:39.797Z,99720.81
2022-10-05T21:30:10.137Z,99720.69
2022-10-05T21:32:43.982Z,99724.31
2022-10-05T21:35:13.284Z,99736.25
2022-10-05T21:37:43.393Z,99688.97
2022-10-05T21:40:12.102Z,99735.94
2022-10-05T21:42:40.792Z,99743.63
2022-10-05T21:45:10.890Z,99732.97
2022-10-05T21:47:39.625Z,99729.38
2022-10-05T21:50:10.301Z,99748.72
2022-10-05T21:52:38.941Z,99742.72
2022-10-05T21:55:09.759Z,99754.78
2022-10-05T21:57:39.008Z,99752.56
2022-10-05T22:00:09.409Z,99735.50
2022-10-05T22:02:38.102Z,99752.63
2022-10-05T22:05:07.106Z,99747.44
2022-10-05T22:07:36.046Z,99754.28
2022-10-05T22:10:05.696Z,99753.47
2022-10-05T22:12:35.652Z,99750.41
2022-10-05T22:15:06.271Z,99754.47
2022-10-05T22:17:36.104Z,99771.88
2022-10-05T22:20:05.166Z,99761.78
2022-10-05T22:22:34.198Z,99756.53
2022-10-05T22:25:03.144Z,99769.25
2022-10-05T22:27:32.114Z,99775.75
2022-10-05T22:30:03.679Z,99775.56
2022-10-05T22:32:32.377Z,99778.59
2022-10-05T22:35:01.029Z,99775.59
2022-10-05T22:37:29.679Z,99783.69
2022-10-05T22:39:58.526Z,99773.19
2022-10-05T22:42:27.177Z,99784.69
2022-10-05T22:44:55.830Z,99780.47
2022-10-05T22:47:25.896Z,99790.16
2022-10-05T22:49:55.106Z,99791.00
2022-10-05T22:52:23.773Z,99790.38
2022-10-05T22:54:52.437Z,99795.25
2022-10-05T22:57:21.338Z,99779.09
2022-10-05T22:59:50.007Z,99789.00
2022-10-05T23:02:19.858Z,99792.63
2022-10-05T23:04:49.881Z,99772.84
2022-10-05T23:07:18.509Z,99789.41
2022-10-05T23:09:47.195Z,99796.47
2022-10-05T23:12:15.975Z,99795.44
2022-10-05T23:14:44.687Z,99800.06
2022-10-05T23:17:13.306Z,99788.00
2022-10-05T23:19:41.910Z,99808.38
2022-10-05T23:22:11.923Z,99801.53
2022-10-05T23:24:40.552Z,99804.97
2022-10-05T23:27:09.192Z,99800.91
2022-10-05T23:29:37.922Z,99804.91
2022-10-05T23:32:07.899Z,99807.97
2022-10-05T23:34:36.559Z,99808.38
2022-10-05T23:37:05.637Z,99815.25
2022-10-05T23:39:35.649Z,99776.69
2022-10-05T23:42:05.051Z,99815.03
2022-10-05T23:44:33.681Z,99810.78
2022-10-05T23:47:02.345Z,99810.38
2022-10-05T23:49:31.005Z,99814.59
2022-10-05T23:51:59.666Z,99820.84
2022-10-05T23:54:28.266Z,99822.25
2022-10-05T23:56:58.237Z,99830.53
2022-10-05T23:59:26.835Z,99827.31
